Time;durP1;ratioP1;P1;durP2;ratioP2;P2;SDS_P1;SDS_P2;PMS_P1;PMS_P2;Temp;Humidity;BMP_temperature;BMP_pressure;BME280_temperature;BME280_humidity;BME280_pressure;Samples;Min_cycle;Max_cycle;Signal;HPM_P1;HPM_P2
2022/12/10 00:01:27;;;;;;;5.83;4.13;;;;;;;18.35;51.11;95872.25;4962364;28;20284;-84
2022/12/10 00:03:53;;;;;;;5.67;4.00;;;;;;;20.18;51.34;96190.00;4956505;29;20252;-84
2022/12/10 00:06:22;;;;;;;5.00;4.10;;;;;;;20.19;51.25;96191.69;4931155;29;20188;-84
2022/12/10 00:08:49;;;;;;;5.33;4.37;;;;;;;17.70;51.40;95776.31;4953761;29;20208;-85
2022/12/10 00:11:16;;;;;;;5.73;4.33;;;;;;;20.19;51.13;96175.56;4945789;29;20268;-83
2022/12/10 00:13:43;;;;;;;5.53;4.20;;;;;;;18.10;51.19;95826.94;4943141;29;20204;-84
2022/12/10 00:16:10;;;;;;;6.03;4.07;;;;;;;15.82;51.02;95433.94;4952544;29;20219;-84
2022/12/10 00:18:37;;;;;;;5.43;4.30;;;;;;;20.18;51.13;96176.38;4944724;29;20213;-84
2022/12/10 00:21:05;;;;;;;5.70;4.13;;;;;;;16.26;51.02;95536.91;4955404;28;20264;-84
2022/12/10 00:23:32;;;;;;;6.70;3.97;;;;;;;13.19;51.32;95013.31;4944155;29;20257;-84
2022/12/10 00:26:14;;;;;;;5.07;3.97;;;;;;;18.93;51.20;95988.53;4957142;29;20205;-84
2022/12/10 00:28:41;;;;;;;5.63;3.90;;;;;;;18.75;51.12;95950.06;4945991;29;20197;-84
2022/12/10 00:31:13;;;;;;;7.57;4.20;;;;;;;17.48;51.14;95797.09;4966937;29;20284;-84
2022/12/10 00:33:42;;;;;;;7.37;4.73;;;;;;;19.21;51.30;96039.88;4939772;29;20214;-84
2022/12/10 00:36:10;;;;;;;5.70;4.10;;;;;;;18.54;51.13;95921.75;4950100;28;20212;-84
2022/12/10 00:38:37;;;;;;;5.17;4.07;;;;;;;15.90;51.19;95472.06;4952330;29;20292;-84
2022/12/10 00:41:04;;;;;;;5.60;3.90;;;;;;;13.93;51.00;95140.22;4948606;29;20233;-84
2022/12/10 00:43:30;;;;;;;7.00;4.13;;;;;;;20.17;51.43;96202.72;4956196;29;20244;-84
2022/12/10 00:45:57;;;;;;;6.73;4.03;;;;;;;20.17;51.36;96205.28;4971101;28;20201;-84
2022/12/10 00:48:24;;;;;;;5.17;4.17;;;;;;;20.17;51.00;96195.94;4952950;29;20201;-84
2022/12/10 00:51:04;;;;;;;5.50;3.90;;;;;;;20.17;51.43;96187.44;4952597;29;20652;-84
2022/12/10 00:53:31;;;;;;;3.87;3.40;;;;;;;19.04;51.21;96041.28;4955876;29;20285;-84
2022/12/10 00:55:58;;;;;;;8.43;4.33;;;;;;;18.65;51.25;95945.69;4951001;29;20224;-84
2022/12/10 00:58:28;;;;;;;5.30;4.17;;;;;;;15.86;50.86;95508.28;4948810;29;20219;-84
2022/12/10 01:01:15;;;;;;;4.20;3.80;;;;;;;20.18;51.20;96200.19;4940741;28;20269;-84
2022/12/10 01:03:42;;;;;;;4.33;3.93;;;;;;;20.17;51.25;96193.41;4951395;29;20204;-84
2022/12/10 01:06:12;;;;;;;5.40;3.93;;;;;;;20.17;51.12;96202.72;4944398;29;20336;-84
2022/12/10 01:08:42;;;;;;;5.67;4.07;;;;;;;20.18;51.33;96204.44;4954284;29;20241;-84
2022/12/10 01:11:09;;;;;;;7.93;4.20;;;;;;;20.18;51.21;96204.44;4950832;29;20586;-84
2022/12/10 01:13:36;;;;;;;5.03;4.03;;;;;;;18.02;51.15;95841.22;4967500;29;20292;-84
2022/12/10 01:16:03;;;;;;;4.60;3.93;;;;;;;16.04;51.12;95528.88;4956990;28;20204;-84
2022/12/10 01:18:30;;;;;;;5.23;4.10;;;;;;;15.31;51.22;95419.41;4962368;29;20660;-84
2022/12/10 01:21:02;;;;;;;5.17;3.80;;;;;;;17.32;51.48;95737.53;4940903;29;20260;-84
2022/12/10 01:23:32;;;;;;;5.43;4.27;;;;;;;20.18;51.24;96215.50;4947748;29;20220;-84
2022/12/10 01:26:03;;;;;;;5.33;4.03;;;;;;;20.17;51.30;96223.13;4971977;29;20224;-84
2022/12/10 01:28:34;;;;;;;5.17;3.70;;;;;;;19.42;51.28;96095.41;4956625;29;20218;-84
2022/12/10 01:31:02;;;;;;;7.17;4.30;;;;;;;20.17;51.29;96228.25;4960940;28;20220;-84
2022/12/10 01:33:29;;;;;;;4.97;3.97;;;;;;;18.72;51.06;95973.78;4955106;29;20223;-84
2022/12/10 01:36:00;;;;;;;5.03;4.27;;;;;;;20.17;51.26;96236.75;4955895;28;20224;-84
2022/12/10 01:38:27;;;;;;;4.87;4.37;;;;;;;20.18;51.14;96237.59;4959105;29;20218;-84
2022/12/10 01:40:54;;;;;;;5.17;4.10;;;;;;;20.18;51.13;96241.00;4971439;28;20683;-84
2022/12/10 01:43:20;;;;;;;9.93;4.30;;;;;;;8.74;50.88;94392.44;4962890;29;20224;-84
2022/12/10 01:45:47;;;;;;;5.10;4.23;;;;;;;20.09;51.17;96228.09;4936021;29;20205;-84
2022/12/10 01:48:14;;;;;;;4.67;4.13;;;;;;;15.41;51.25;95426.38;4950703;29;20238;-84
2022/12/10 01:50:40;;;;;;;5.13;3.93;;;;;;;15.45;51.07;95441.66;4946092;29;20251;-84
2022/12/10 01:53:07;;;;;;;4.93;4.43;;;;;;;20.17;51.44;96314.97;4942801;29;20233;-84
2022/12/10 01:55:54;;;;;;;4.90;3.73;;;;;;;18.83;51.39;96019.75;4938386;29;20210;-83
2022/12/10 01:58:20;;;;;;;4.87;4.20;;;;;;;14.44;51.29;95279.38;4959813;28;20202;-84
2022/12/10 02:01:13;;;;;;;5.63;4.50;;;;;;;20.16;51.44;96245.22;4953164;29;20197;-84
2022/12/10 02:03:47;;;;;;;4.10;3.70;;;;;;;20.16;51.41;96244.38;4954652;29;20284;-84
2022/12/10 02:06:29;;;;;;;4.40;4.00;;;;;;;13.78;51.03;95154.19;4954393;29;20201;-84
2022/12/10 02:09:02;;;;;;;5.47;4.17;;;;;;;14.98;51.14;95452.44;4949973;29;20218;-84
2022/12/10 02:11:32;;;;;;;4.43;3.90;;;;;;;13.31;51.31;95200.19;4956679;29;20252;-84
2022/12/10 02:14:01;;;;;;;5.87;3.80;;;;;;;20.17;51.43;96274.16;4949026;29;20209;-84
2022/12/10 02:16:40;;;;;;;4.67;4.17;;;;;;;17.39;51.31;95828.22;4954949;29;20212;-84
2022/12/10 02:19:21;;;;;;;4.33;3.90;;;;;;;18.96;51.61;96092.94;4931478;29;20215;-84
2022/12/10 02:21:49;;;;;;;4.63;4.03;;;;;;;17.16;51.31;95816.78;4927008;29;20212;-84
2022/12/10 02:24:18;;;;;;;6.23;4.03;;;;;;;20.13;51.20;96286.00;4954893;29;20216;-84
2022/12/10 02:27:04;;;;;;;4.53;3.73;;;;;;;18.04;51.29;95859.88;4939071;29;20212;-84
2022/12/10 02:29:32;;;;;;;5.43;3.53;;;;;;;18.52;51.26;95941.22;4948316;29;20208;-84
2022/12/10 02:32:10;;;;;;;4.77;4.00;;;;;;;20.19;51.38;96227.41;4940571;29;20258;-84
2022/12/10 02:34:40;;;;;;;4.97;3.93;;;;;;;20.18;51.29;96229.94;4934230;29;20208;-84
2022/12/10 02:37:11;;;;;;;4.73;4.10;;;;;;;16.29;51.21;95592.72;4935437;29;20720;-84
2022/12/10 02:39:40;;;;;;;4.30;3.73;;;;;;;16.43;51.17;95626.81;4943933;29;20268;-85
2022/12/10 02:42:06;;;;;;;5.00;3.83;;;;;;;20.19;51.21;96222.31;4944014;29;20256;-84
2022/12/10 02:44:33;;;;;;;4.30;3.60;;;;;;;20.18;51.48;96215.50;4930687;29;20233;-84
2022/12/10 02:46:59;;;;;;;4.20;3.80;;;;;;;20.20;51.18;96202.78;4954187;29;20207;-85
2022/12/10 02:49:26;;;;;;;4.30;3.80;;;;;;;18.86;50.86;96091.91;4944138;29;20209;-83
2022/12/10 02:51:53;;;;;;;4.17;3.77;;;;;;;20.19;51.15;96222.31;4937923;29;20291;-84
2022/12/10 02:54:37;;;;;;;3.83;3.53;;;;;;;17.81;51.08;95841.72;4947322;29;20213;-84
2022/12/10 02:57:41;;;;;;;4.10;3.70;;;;;;;20.21;51.21;96207.03;4941554;29;20231;-84
2022/12/10 03:00:18;;;;;;;4.07;3.57;;;;;;;20.20;51.33;96203.63;4949583;29;20207;-84
2022/12/10 03:03:18;;;;;;;3.90;3.30;;;;;;;20.20;51.30;96202.78;4945202;29;20239;-84
2022/12/10 03:05:58;;;;;;;6.13;3.73;;;;;;;13.35;50.90;95059.06;4949839;29;20205;-84
2022/12/10 03:08:51;;;;;;;4.67;3.73;;;;;;;15.58;51.04;95422.50;4933052;29;20205;-84
2022/12/10 03:11:22;;;;;;;4.23;3.80;;;;;;;16.22;51.09;95555.44;4965451;29;20225;-84
2022/12/10 03:14:00;;;;;;;3.63;3.27;;;;;;;20.21;51.10;96202.78;4947456;29;20207;-84
2022/12/10 03:16:34;;;;;;;4.60;3.73;;;;;;;15.08;51.44;95391.13;4952525;29;20256;-84
2022/12/10 03:19:04;;;;;;;4.30;3.90;;;;;;;18.35;50.86;95912.94;4932071;29;20236;-84
2022/12/10 03:21:31;;;;;;;4.40;4.00;;;;;;;20.22;51.17;96218.97;4934350;29;20197;-83
2022/12/10 03:23:57;;;;;;;4.10;3.70;;;;;;;14.60;51.14;95256.97;4932157;29;20298;-84
2022/12/10 03:26:24;;;;;;;4.40;4.00;;;;;;;18.55;51.14;95929.41;4949913;29;20681;-84
2022/12/10 03:28:56;;;;;;;4.30;3.50;;;;;;;19.22;51.33;96035.66;4949564;29;20220;-84
2022/12/10 03:31:23;;;;;;;4.00;3.60;;;;;;;20.22;51.04;96282.75;4934308;29;20253;-85
2022/12/10 03:33:50;;;;;;;4.77;3.73;;;;;;;16.25;51.00;95524.22;4955902;29;20653;-85
2022/12/10 03:36:17;;;;;;;4.20;3.47;;;;;;;17.14;51.46;95800.66;4945871;29;20202;-84
2022/12/10 03:38:43;;;;;;;3.93;3.53;;;;;;;20.21;51.20;96202.78;4954465;29;20264;-84
2022/12/10 03:41:10;;;;;;;4.17;3.77;;;;;;;16.55;51.29;95582.25;4957112;28;20278;-84
2022/12/10 03:43:52;;;;;;;4.23;3.83;;;;;;;18.37;51.17;95890.06;4948877;29;20236;-84
2022/12/10 03:46:19;;;;;;;3.90;3.50;;;;;;;17.36;51.12;95716.47;4965676;28;20583;-84
2022/12/10 03:48:45;;;;;;;4.43;3.70;;;;;;;20.23;50.79;96206.22;4935984;29;20208;-84
2022/12/10 03:51:12;;;;;;;3.90;3.60;;;;;;;19.17;51.04;96022.84;4945481;29;20224;-84
2022/12/10 03:53:38;;;;;;;4.00;3.60;;;;;;;17.94;51.07;95814.81;4958167;29;20719;-84
2022/12/10 03:56:05;;;;;;;4.13;3.73;;;;;;;20.24;51.03;96213.03;4947368;29;20482;-85
2022/12/10 03:58:35;;;;;;;4.17;3.77;;;;;;;15.08;50.83;95387.72;4955845;29;20240;-84
2022/12/10 04:01:03;;;;;;;4.03;3.63;;;;;;;20.24;50.99;96219.81;4949756;29;20563;-84
2022/12/10 04:03:36;;;;;;;3.73;3.43;;;;;;;19.02;50.96;96009.88;4952320;29;20228;-83
2022/12/10 04:06:04;;;;;;;4.33;3.83;;;;;;;13.93;50.81;95141.88;4962235;28;20224;-85
2022/12/10 04:08:31;;;;;;;3.97;3.57;;;;;;;20.23;51.01;96213.03;4949752;29;20205;-83
2022/12/10 04:11:04;;;;;;;4.03;3.67;;;;;;;13.70;50.69;95107.75;4953282;29;20267;-85
2022/12/10 04:16:26;;;;;;;4.40;4.00;;;;;;;18.69;51.27;95994.09;4950267;29;20305;-85
2022/12/10 04:19:12;;;;;;;4.57;3.87;;;;;;;13.71;51.07;95135.53;4944184;29;20208;-84
2022/12/10 04:27:23;;;;;;;4.53;3.97;;;;;;;20.22;51.25;96287.84;4948227;29;20248;-84
2022/12/10 04:29:50;;;;;;;4.40;4.00;;;;;;;16.67;51.16;95628.94;4951523;29;20213;-83
2022/12/10 04:32:17;;;;;;;4.60;4.10;;;;;;;16.48;50.95;95606.63;4951099;29;20240;-85
2022/12/10 04:34:43;;;;;;;4.87;4.00;;;;;;;13.74;51.03;95213.81;4964090;29;20264;-84
2022/12/10 04:37:13;;;;;;;4.17;3.77;;;;;;;16.64;50.30;95729.50;4947685;29;20684;-84
2022/12/10 04:39:40;;;;;;;4.40;4.00;;;;;;;17.11;51.05;95810.75;4945755;29;20206;-84
2022/12/10 04:42:07;;;;;;;4.50;4.07;;;;;;;19.60;51.08;96121.16;4937835;29;20217;-84
2022/12/10 04:44:34;;;;;;;4.23;3.83;;;;;;;19.51;51.22;96100.66;4954926;29;20276;-84
2022/12/10 04:47:01;;;;;;;4.23;3.83;;;;;;;14.80;51.20;95410.75;4945824;29;20244;-84
2022/12/10 04:49:27;;;;;;;4.33;3.93;;;;;;;17.85;51.15;95812.97;4954677;29;20276;-84
2022/12/10 04:51:55;;;;;;;4.43;4.03;;;;;;;15.69;50.90;95447.19;4946824;29;20233;-84
2022/12/10 04:54:21;;;;;;;4.30;3.70;;;;;;;16.78;51.08;95683.25;4924329;29;20212;-84
2022/12/10 04:56:48;;;;;;;3.90;3.60;;;;;;;12.59;50.95;94901.94;4929582;29;20288;-84
2022/12/10 04:59:15;;;;;;;4.30;3.90;;;;;;;14.33;51.14;95200.00;4959309;29;20208;-84
2022/12/10 05:01:41;;;;;;;3.53;3.23;;;;;;;17.21;51.25;95682.34;4935748;29;20644;-84
2022/12/10 05:04:10;;;;;;;5.17;3.23;;;;;;;20.21;51.13;96202.78;4931089;29;20231;-84
2022/12/10 05:06:37;;;;;;;4.00;3.70;;;;;;;12.33;51.41;94969.34;4946582;29;20272;-82
2022/12/10 05:09:04;;;;;;;4.30;3.90;;;;;;;15.99;51.38;95528.81;4956367;29;20216;-85
2022/12/10 05:11:31;;;;;;;4.70;4.20;;;;;;;20.20;51.27;96221.50;4917308;29;20221;-84
2022/12/10 05:13:58;;;;;;;3.93;3.53;;;;;;;20.20;51.55;96229.16;4956860;29;20260;-84
2022/12/10 05:16:26;;;;;;;4.00;3.60;;;;;;;20.21;51.17;96240.19;4947133;29;20216;-84
2022/12/10 05:18:53;;;;;;;3.70;3.40;;;;;;;16.36;51.08;95578.50;4948377;29;20201;-84
2022/12/10 05:21:20;;;;;;;4.03;3.70;;;;;;;20.20;51.31;96231.69;4972338;28;20211;-84
2022/12/10 05:23:51;;;;;;;4.17;3.77;;;;;;;20.18;51.29;96222.28;4953120;29;20202;-85
2022/12/10 05:26:22;;;;;;;4.00;3.67;;;;;;;20.20;51.27;96225.72;4958822;28;20204;-84
2022/12/10 05:28:54;;;;;;;4.20;3.80;;;;;;;19.13;51.00;96045.69;4953809;29;20205;-85
2022/12/10 05:31:25;;;;;;;4.10;3.70;;;;;;;18.82;51.12;96021.44;4952848;29;20210;-84
2022/12/10 05:33:52;;;;;;;5.50;4.10;;;;;;;15.42;51.08;95461.84;4953369;29;20538;-84
2022/12/10 05:36:23;;;;;;;4.70;4.20;;;;;;;20.20;51.15;96226.59;4938210;29;20233;-84
2022/12/10 05:38:49;;;;;;;4.73;4.13;;;;;;;19.79;51.33;96156.25;4948339;29;20212;-84
2022/12/10 05:41:18;;;;;;;4.13;3.73;;;;;;;20.19;51.13;96222.31;4956153;28;20209;-84
2022/12/10 05:43:45;;;;;;;4.77;4.07;;;;;;;19.57;51.08;96116.88;4954234;29;20197;-84
2022/12/10 05:46:17;;;;;;;4.73;3.90;;;;;;;15.60;50.67;95530.53;4951808;29;20206;-84
2022/12/10 05:48:46;;;;;;;4.93;4.10;;;;;;;19.47;50.88;96097.19;4945861;29;20212;-84
2022/12/10 05:51:15;;;;;;;4.43;4.03;;;;;;;16.98;51.17;95730.16;4949565;29;20228;-84
2022/12/10 05:53:41;;;;;;;3.97;3.40;;;;;;;20.21;50.79;96229.97;4945919;29;20209;-83
2022/12/10 05:56:10;;;;;;;4.00;3.60;;;;;;;16.06;50.67;95620.97;4954844;28;20235;-84
2022/12/10 05:58:40;;;;;;;4.27;3.90;;;;;;;14.82;50.62;95313.88;4963249;29;20206;-84
2022/12/10 06:01:11;;;;;;;4.33;3.93;;;;;;;14.50;50.83;95264.34;4966729;28;20205;-84
2022/12/10 06:03:38;;;;;;;4.87;4.20;;;;;;;20.20;50.91;96229.16;4950116;29;20739;-83
2022/12/10 06:06:04;;;;;;;4.27;3.87;;;;;;;19.18;50.92;96055.09;4953454;29;20205;-85
2022/12/10 06:08:32;;;;;;;4.50;4.10;;;;;;;20.20;51.04;96230.84;4974172;28;20201;-85
2022/12/10 06:11:05;;;;;;;4.43;4.03;;;;;;;20.20;50.85;96230.84;4944179;29;20209;-85
2022/12/10 06:13:32;;;;;;;4.47;4.07;;;;;;;20.20;50.68;96236.81;4943650;29;20236;-85
2022/12/10 06:15:59;;;;;;;4.60;4.20;;;;;;;17.02;50.76;95797.06;4962802;29;20197;-84
2022/12/10 06:18:26;;;;;;;4.53;4.13;;;;;;;20.18;50.98;96241.00;4950949;29;20228;-85
2022/12/10 06:20:52;;;;;;;4.13;3.80;;;;;;;20.19;50.94;96242.72;4953272;29;20266;-85
2022/12/10 06:23:19;;;;;;;4.43;4.03;;;;;;;20.19;51.04;96260.56;4956373;28;20225;-85
2022/12/10 06:25:46;;;;;;;4.50;4.10;;;;;;;20.17;51.10;96241.84;4935259;29;20209;-85
2022/12/10 06:28:13;;;;;;;4.90;4.40;;;;;;;17.63;50.79;95805.84;4947363;29;20202;-85
2022/12/10 06:30:39;;;;;;;4.20;3.80;;;;;;;20.19;51.07;96240.16;4951251;29;20209;-84
2022/12/10 06:33:06;;;;;;;4.47;4.07;;;;;;;11.87;50.48;94935.47;4947319;29;20239;-84
2022/12/10 06:35:32;;;;;;;4.23;3.77;;;;;;;20.17;51.00;96231.66;4941283;29;20215;-85
2022/12/10 06:37:59;;;;;;;4.70;4.30;;;;;;;19.17;50.91;96058.50;4949682;29;20277;-85
2022/12/10 06:40:25;;;;;;;4.00;3.70;;;;;;;20.19;51.07;96226.56;4913391;29;20259;-85
2022/12/10 06:42:52;;;;;;;4.27;3.87;;;;;;;16.01;50.81;95516.16;4944251;29;20292;-85
2022/12/10 06:45:18;;;;;;;3.80;3.50;;;;;;;20.19;50.96;96235.06;4966690;29;20231;-84
2022/12/10 06:47:45;;;;;;;4.20;3.90;;;;;;;14.01;50.46;95218.66;4952344;29;20273;-86
2022/12/10 06:50:12;;;;;;;4.10;3.70;;;;;;;19.12;50.75;96067.75;4962143;29;20558;-85
2022/12/10 06:52:38;;;;;;;3.73;3.43;;;;;;;15.38;50.85;95429.72;4939401;29;20229;-83
2022/12/10 06:55:05;;;;;;;4.50;4.10;;;;;;;19.91;50.76;96209.97;4950341;29;20363;-84
2022/12/10 06:57:31;;;;;;;4.40;4.00;;;;;;;20.18;51.08;96255.44;4952662;29;20244;-85
2022/12/10 06:59:58;;;;;;;4.03;3.63;;;;;;;20.18;50.81;96256.31;4952135;29;20213;-84
2022/12/10 07:02:25;;;;;;;4.90;4.43;;;;;;;20.19;50.78;96260.56;4958497;29;20240;-84
2022/12/10 07:04:51;;;;;;;4.63;4.23;;;;;;;20.19;50.85;96260.56;4961661;29;20236;-85
2022/12/10 07:07:18;;;;;;;4.47;4.07;;;;;;;20.20;50.54;96264.00;4955987;28;20202;-85
2022/12/10 07:09:44;;;;;;;4.63;4.20;;;;;;;9.05;50.48;94363.28;4940524;29;20222;-84
2022/12/10 07:12:11;;;;;;;3.97;3.67;;;;;;;11.04;50.70;94704.53;4947230;29;20316;-85
2022/12/10 07:14:38;;;;;;;4.33;3.93;;;;;;;20.19;50.96;96268.22;4953434;29;20212;-85
2022/12/10 07:17:05;;;;;;;4.70;4.30;;;;;;;17.87;50.30;95881.63;4947267;29;20208;-84
2022/12/10 07:19:34;;;;;;;4.37;3.97;;;;;;;15.02;50.83;95466.88;4946577;29;20272;-85
2022/12/10 07:22:00;;;;;;;4.23;3.83;;;;;;;20.18;50.77;96283.50;4915678;29;20383;-85
2022/12/10 07:24:27;;;;;;;4.50;4.10;;;;;;;18.53;50.78;96009.91;4936048;29;20217;-85
2022/12/10 07:26:54;;;;;;;4.70;4.30;;;;;;;18.63;50.72;96019.44;4930419;29;20201;-83
2022/12/10 07:29:20;;;;;;;4.33;3.93;;;;;;;20.18;50.85;96286.94;4941499;29;20204;-85
2022/12/10 07:31:48;;;;;;;4.43;4.03;;;;;;;20.18;50.61;96297.13;4941197;29;20225;-85
2022/12/10 07:34:14;;;;;;;7.03;4.53;;;;;;;15.95;50.73;95574.31;4939633;29;20232;-84
2022/12/10 07:36:41;;;;;;;6.90;4.47;;;;;;;20.18;50.68;96288.59;4948886;29;20197;-84
2022/12/10 07:39:08;;;;;;;8.33;4.83;;;;;;;16.03;50.66;95638.66;4946714;28;20220;-84
2022/12/10 07:41:35;;;;;;;7.57;4.50;;;;;;;20.18;50.70;96278.41;4943629;28;20212;-85
2022/12/10 07:44:06;;;;;;;5.67;5.07;;;;;;;15.73;50.75;95526.59;4957717;28;20227;-84
2022/12/10 07:46:33;;;;;;;5.90;5.20;;;;;;;16.32;50.57;95622.34;4961931;28;20192;-85
2022/12/10 07:49:01;;;;;;;5.33;4.83;;;;;;;16.05;50.70;95581.28;4974626;28;20225;-85
2022/12/10 07:51:28;;;;;;;5.77;4.47;;;;;;;14.25;50.65;95287.41;4949950;28;20244;-83
2022/12/10 07:53:54;;;;;;;5.03;4.37;;;;;;;14.74;50.60;95390.38;4957489;28;20231;-85
2022/12/10 07:56:22;;;;;;;6.67;4.77;;;;;;;20.18;50.74;96294.56;4960368;28;20249;-85
2022/12/10 07:58:49;;;;;;;4.67;4.27;;;;;;;13.68;50.35;95173.31;4948769;28;20182;-84
2022/12/10 08:01:24;;;;;;;4.80;4.30;;;;;;;20.19;50.72;96296.28;4951212;29;20249;-84
2022/12/10 08:03:51;;;;;;;6.37;4.70;;;;;;;17.20;50.25;95863.41;4959550;28;20203;-85
2022/12/10 08:06:19;;;;;;;5.20;4.70;;;;;;;14.83;50.44;95443.69;4955792;28;20191;-84
2022/12/10 08:08:45;;;;;;;6.23;4.97;;;;;;;15.84;50.58;95556.34;4955325;28;20277;-84
2022/12/10 08:11:13;;;;;;;4.97;4.47;;;;;;;14.94;50.59;95400.09;4945009;28;20201;-85
2022/12/10 08:13:39;;;;;;;5.30;4.80;;;;;;;15.03;50.63;95422.19;4969514;28;20283;-85
2022/12/10 08:16:11;;;;;;;4.90;4.50;;;;;;;20.17;50.80;96297.09;4953157;28;20438;-84
2022/12/10 08:18:38;;;;;;;7.67;4.50;;;;;;;18.35;50.85;95989.22;4950757;28;20209;-84
2022/12/10 08:21:27;;;;;;;5.00;4.50;;;;;;;20.19;50.92;96305.66;4963618;28;20205;-84
2022/12/10 08:23:54;;;;;;;6.77;6.07;;;;;;;20.18;50.55;96294.56;4947815;29;20190;-84
2022/12/10 08:26:23;;;;;;;12.47;11.27;;;;;;;20.18;48.05;96293.72;4948438;28;20210;-85
2022/12/10 08:28:49;;;;;;;16.37;13.30;;;;;;;20.16;46.72;96285.19;4947219;29;20200;-85
2022/12/10 08:31:19;;;;;;;17.73;12.40;;;;;;;20.15;46.10;96325.13;4965010;28;20201;-84
2022/12/10 08:33:45;;;;;;;17.60;15.63;;;;;;;20.15;44.33;96284.31;4951085;28;20221;-85
2022/12/10 08:36:13;;;;;;;18.00;16.10;;;;;;;14.59;43.05;95337.81;4948734;28;20217;-85
2022/12/10 08:38:40;;;;;;;20.10;16.73;;;;;;;20.12;42.59;96280.84;4947454;29;20207;-84
2022/12/10 08:41:08;;;;;;;21.70;16.43;;;;;;;15.64;42.50;95527.28;4948897;29;20273;-85
2022/12/10 08:43:34;;;;;;;19.63;16.80;;;;;;;20.09;42.42;96286.75;4949546;29;20211;-85
2022/12/10 08:46:01;;;;;;;22.87;17.20;;;;;;;20.07;43.27;96285.03;4944878;29;20208;-86
2022/12/10 08:48:28;;;;;;;19.03;15.37;;;;;;;20.07;44.12;96292.69;4952292;28;20197;-85
2022/12/10 08:50:54;;;;;;;19.13;15.80;;;;;;;20.05;44.32;96295.19;4951673;28;20200;-86
2022/12/10 08:53:21;;;;;;;17.03;15.20;;;;;;;20.05;44.83;96300.31;4959952;28;20220;-85
2022/12/10 08:55:52;;;;;;;16.20;14.50;;;;;;;15.01;45.12;95461.78;4950932;29;20201;-85
2022/12/10 08:58:19;;;;;;;18.83;14.40;;;;;;;20.05;45.53;96305.41;4953970;29;20283;-85
2022/12/10 09:00:47;;;;;;;18.07;14.13;;;;;;;20.06;45.89;96303.69;4952171;29;20200;-87
2022/12/10 09:03:13;;;;;;;16.73;13.70;;;;;;;13.83;45.80;95243.50;4947599;28;20291;-85
2022/12/10 09:05:40;;;;;;;16.47;13.13;;;;;;;18.34;46.04;96015.50;4954906;29;20189;-84
2022/12/10 09:08:06;;;;;;;17.40;13.27;;;;;;;20.06;46.64;96309.66;4948312;28;20277;-86
2022/12/10 09:10:37;;;;;;;14.37;12.43;;;;;;;16.11;46.74;95629.53;4949020;29;20201;-86
2022/12/10 09:13:03;;;;;;;14.03;12.43;;;;;;;20.07;46.83;96302.88;4950087;28;20272;-86
2022/12/10 09:15:30;;;;;;;14.10;12.60;;;;;;;20.07;46.77;96301.16;4948993;29;20205;-86
2022/12/10 09:17:56;;;;;;;14.57;13.00;;;;;;;13.27;46.12;95181.63;4947772;29;20201;-85
2022/12/10 09:20:23;;;;;;;14.80;12.93;;;;;;;14.49;46.25;95349.41;4942219;29;20201;-83
2022/12/10 09:22:49;;;;;;;15.43;12.00;;;;;;;13.84;46.69;95260.31;4956338;29;20246;-83
2022/12/10 09:25:16;;;;;;;15.30;11.67;;;;;;;19.05;47.20;96118.53;4935788;29;20295;-85
2022/12/10 09:27:43;;;;;;;14.27;11.57;;;;;;;20.07;46.99;96292.69;4940493;29;20204;-84
2022/12/10 09:30:10;;;;;;;15.40;11.57;;;;;;;20.07;47.31;96296.06;4954620;29;20212;-86
2022/12/10 09:32:37;;;;;;;12.63;11.30;;;;;;;13.63;47.00;95269.91;4948668;29;20253;-84
2022/12/10 09:35:04;;;;;;;12.23;10.83;;;;;;;18.20;47.58;95983.88;4957681;29;20204;-83
2022/12/10 09:37:30;;;;;;;12.40;10.43;;;;;;;20.08;47.12;96305.44;4946524;29;20240;-85
2022/12/10 09:39:57;;;;;;;12.03;10.70;;;;;;;20.10;48.14;96301.22;4953196;29;20194;-85
2022/12/10 09:42:30;;;;;;;13.60;9.83;;;;;;;20.11;47.62;96305.50;4947842;29;20221;-85
2022/12/10 09:44:56;;;;;;;12.80;10.27;;;;;;;20.12;47.67;96308.88;4951231;29;20673;-85
2022/12/10 09:47:26;;;;;;;11.83;9.67;;;;;;;20.13;47.79;96348.91;4946190;29;20301;-85
2022/12/10 09:49:55;;;;;;;11.53;10.17;;;;;;;20.14;47.74;96314.91;4943498;29;20209;-84
2022/12/10 09:52:23;;;;;;;12.10;9.83;;;;;;;20.14;48.10;96308.13;4943339;28;20253;-83
2022/12/10 09:54:52;;;;;;;12.37;9.60;;;;;;;20.14;48.02;96312.38;4953733;29;20232;-86
2022/12/10 09:57:30;;;;;;;11.60;9.80;;;;;;;20.15;48.06;96311.50;4955302;29;20185;-86
2022/12/10 09:59:59;;;;;;;12.73;8.87;;;;;;;19.22;47.93;96151.06;4940544;29;20206;-84
2022/12/10 10:02:27;;;;;;;13.33;8.87;;;;;;;20.15;48.03;96307.28;4944489;29;20232;-84
2022/12/10 10:05:10;;;;;;;10.10;8.60;;;;;;;20.15;48.19;96307.28;4943667;29;20229;-84
2022/12/10 10:07:38;;;;;;;11.60;9.33;;;;;;;18.75;48.20;96067.13;4939723;29;20203;-81
2022/12/10 10:10:07;;;;;;;11.37;8.73;;;;;;;18.07;48.08;95954.84;4947542;29;20198;-84
2022/12/10 10:12:34;;;;;;;9.80;8.13;;;;;;;19.79;48.17;96238.69;4953621;29;20216;-86
2022/12/10 10:15:15;;;;;;;10.67;9.10;;;;;;;15.74;48.17;95543.47;4947983;29;20471;-84
2022/12/10 10:17:45;;;;;;;11.70;9.27;;;;;;;18.56;48.21;96026.94;4946668;29;20200;-84
2022/12/10 10:20:12;;;;;;;10.73;9.60;;;;;;;19.67;48.25;96218.13;4955805;23;20237;-95
2022/12/10 10:22:39;;;;;;;15.43;11.27;;;;;;;19.97;48.28;96263.63;4944905;28;20230;-95
2022/12/10 10:25:13;;;;;;;15.87;12.07;;;;;;;18.57;48.51;96026.09;4952218;28;20212;-95
2022/12/10 10:27:39;;;;;;;18.87;12.47;;;;;;;19.44;48.64;96182.91;4934575;28;20219;-95
2022/12/10 10:30:07;;;;;;;16.17;12.47;;;;;;;19.48;48.59;96203.34;4951132;28;20228;-93
2022/12/10 10:32:36;;;;;;;18.07;13.03;;;;;;;20.18;48.70;96316.66;4935607;28;20212;-93
2022/12/10 10:35:04;;;;;;;15.70;11.63;;;;;;;19.68;48.62;96229.16;4954597;28;20193;-95
2022/12/10 10:37:33;;;;;;;17.17;12.00;;;;;;;20.18;48.70;96296.25;4952019;28;20189;-94
2022/12/10 10:40:00;;;;;;;14.80;11.83;;;;;;;19.71;48.92;96214.78;4952831;28;20229;-95
2022/12/10 10:42:41;;;;;;;17.63;12.57;;;;;;;19.55;48.69;96192.44;4960231;28;20209;-93
2022/12/10 10:45:50;;;;;;;19.77;13.00;;;;;;;19.21;48.63;96118.81;4948268;28;20219;-96
2022/12/10 10:48:22;;;;;;;18.03;12.93;;;;;;;19.46;48.43;96178.69;4952854;28;20196;-92
2022/12/10 10:51:05;;;;;;;17.00;12.43;;;;;;;19.25;48.66;96130.78;4921576;28;20239;-93
2022/12/10 10:53:38;;;;;;;16.53;12.67;;;;;;;20.19;48.87;96278.44;4952862;28;20216;-94
2022/12/10 10:56:20;;;;;;;18.40;12.67;;;;;;;19.19;49.03;96102.63;4952105;28;20217;-94
2022/12/10 10:59:19;;;;;;;20.60;14.40;;;;;;;19.31;48.68;96138.56;4935294;28;20674;-95
2022/12/10 11:01:46;;;;;;;22.47;15.80;;;;;;;19.65;48.72;96194.28;4946613;28;20264;-95
2022/12/10 11:04:16;;;;;;;21.33;14.60;;;;;;;18.73;48.98;96044.19;4949297;28;20332;-93
2022/12/10 11:06:43;;;;;;;23.77;15.40;;;;;;;19.32;49.04;96145.34;4950650;28;20189;-94
2022/12/10 11:09:24;;;;;;;22.70;15.70;;;;;;;19.46;49.31;96174.47;4948117;28;20455;-93
2022/12/10 11:11:56;;;;;;;19.73;14.67;;;;;;;19.40;48.98;96168.41;4932992;28;20217;-93
2022/12/10 11:14:24;;;;;;;21.73;14.63;;;;;;;20.19;49.33;96280.97;4935084;28;20280;-93
2022/12/10 11:16:54;;;;;;;21.83;15.50;;;;;;;19.98;49.16;96256.00;4935426;28;20257;-93
2022/12/10 11:19:22;;;;;;;20.93;14.40;;;;;;;19.99;49.15;96249.22;4915468;29;20224;-95
2022/12/10 11:22:14;;;;;;;22.50;14.40;;;;;;;18.77;48.94;96081.56;4968851;28;20189;-96
2022/12/10 11:24:41;;;;;;;19.87;14.07;;;;;;;17.59;49.06;95843.88;4956906;28;20289;-94
2022/12/10 11:27:13;;;;;;;21.53;13.93;;;;;;;19.57;49.16;96200.94;4939758;28;20223;-96
2022/12/10 11:32:28;;;;;;;20.47;13.77;;;;;;;20.21;48.91;96288.66;4951517;28;20193;-95
2022/12/10 11:35:25;;;;;;;19.97;14.17;;;;;;;20.21;49.22;96283.56;4960040;28;20245;-95
2022/12/10 11:38:20;;;;;;;18.57;13.43;;;;;;;20.21;49.29;96281.88;4944575;28;20185;-96
2022/12/10 11:40:50;;;;;;;16.90;12.87;;;;;;;20.22;49.09;96288.69;4949512;28;20245;-92
2022/12/10 11:43:39;;;;;;;18.53;13.77;;;;;;;20.21;49.30;96297.19;4957602;28;20189;-92
2022/12/10 11:46:34;;;;;;;19.43;13.70;;;;;;;19.46;49.20;96163.41;4957072;28;20253;-95
2022/12/10 11:49:01;;;;;;;18.13;13.83;;;;;;;20.22;49.19;96287.84;4949886;28;20209;-93
2022/12/10 11:51:45;;;;;;;18.90;12.70;;;;;;;20.21;49.28;96297.19;4952889;28;20217;-95
2022/12/10 11:54:34;;;;;;;17.97;12.70;;;;;;;20.22;49.31;96292.94;4957567;28;20216;-95